Mackinac Express — WDI9130 — position and weather

sailwx.info

Track history (hours):
 
Tides and Currents Weather Stations Pressure Air Temp Water Temp Dewpoint Dewpoint Depression Visibility Wind Speed Wind Dir Waves Ship Positions

Mackinac Express

Owner: STAR LINE - MACKINAC ISLAND PASS SERVICE, Saint Ignac, MI. More information available from US FCC via Universal Licensing System and Coast Guard Vessel Documentation Center.

Last reported at 2018-Jul-21 04:23 UTC. Time now 2018-Jul-21 08:00 UTC.
Position N 45°46' W 084°43'.

MMSI: 367745540.

Date/timePositionNaut miles runAvg speedWind from/ knotsBaromVisibWave heightAir tempDewpointWater temp
2018-Jul-21 04:23N 45°46' W 084°43'616.7
2018-Jul-21 04:00N 45°51' W 084°37'612.8
2018-Jul-21 03:30N 45°46' W 084°43'0 0.0
2018-Jul-21 03:00N 45°46' W 084°43'612.3
2018-Jul-21 02:29N 45°51' W 084°37'613.6
2018-Jul-21 02:01N 45°46' W 084°43'0 0.0
2018-Jul-21 01:31N 45°46' W 084°43'612.1
2018-Jul-21 00:59N 45°51' W 084°37'613.7
2018-Jul-21 00:31N 45°46' W 084°43'612.4
2018-Jul-20 23:59N 45°51' W 084°37'612.8
2018-Jul-20 23:29N 45°46' W 084°43'0 0.0
2018-Jul-20 23:00N 45°46' W 084°43'611.4
2018-Jul-20 22:27N 45°51' W 084°37'614.7
2018-Jul-20 22:00N 45°46' W 084°43'2 4.4
2018-Jul-20 21:30N 45°48' W 084°41'4 8.3
2018-Jul-20 21:00N 45°50' W 084°37'612.5
2018-Jul-20 20:30N 45°46' W 084°43'612.5
2018-Jul-20 19:59N 45°51' W 084°37'1 1.8
2018-Jul-20 19:30N 45°50' W 084°37'3 6.8
2018-Jul-20 19:00N 45°48' W 084°41'4 8.7
2018-Jul-20 18:30N 45°51' W 084°37'612.9
2018-Jul-20 18:00N 45°46' W 084°43'612.7
2018-Jul-20 17:30N 45°51' W 084°37'1 2.1
2018-Jul-20 17:00N 45°50' W 084°38'3 6.8
2018-Jul-20 16:30N 45°48' W 084°41'5 9.1
2018-Jul-20 16:00N 45°51' W 084°37'612.7
2018-Jul-20 15:30N 45°46' W 084°43'612.9
2018-Jul-20 15:00N 45°51' W 084°37'5 9.3
2018-Jul-20 14:30N 45°49' W 084°43'2 4.0
2018-Jul-20 14:00N 45°47' W 084°42'510.3
2018-Jul-20 13:30N 45°51' W 084°37'611.3
2018-Jul-20 12:57N 45°46' W 084°43'0 0.0
2018-Jul-20 12:30N 45°46' W 084°43'612.4
2018-Jul-20 11:59N 45°51' W 084°37'613.4
2018-Jul-20 11:30N 45°46' W 084°43'0 0.0
2018-Jul-20 11:00N 45°46' W 084°43'0 0.0
2018-Jul-19 22:56N 45°46' W 084°43'614.8
2018-Jul-19 22:30N 45°51' W 084°37'612.5
2018-Jul-19 22:00N 45°46' W 084°43'3 6.5
2018-Jul-19 21:30N 45°49' W 084°40'2 4.5
2018-Jul-19 21:00N 45°50' W 084°38'510.8
2018-Jul-19 20:30N 45°46' W 084°43'612.7
2018-Jul-19 20:00N 45°51' W 084°37'1 2.3
2018-Jul-19 19:31N 45°50' W 084°38'4 7.6
2018-Jul-19 19:00N 45°47' W 084°42'5 9.6
2018-Jul-19 18:30N 45°51' W 084°37'612.2
2018-Jul-19 17:58N 45°46' W 084°43'613.5
2018-Jul-19 17:30N 45°51' W 084°37'2 3.6
2018-Jul-19 17:00N 45°50' W 084°39'4 7.1
2018-Jul-19 16:30N 45°47' W 084°42'510.1
2018-Jul-19 15:59N 45°51' W 084°37'613.6
2018-Jul-19 15:30N 45°46' W 084°43'1 0.8
2018-Jul-19 14:00N 45°47' W 084°42'510.5
2018-Jul-19 13:30N 45°51' W 084°37'612.4
2018-Jul-19 12:59N 45°46' W 084°43'0 0.0
2018-Jul-19 12:30N 45°46' W 084°43'612.8
2018-Jul-19 12:00N 45°51' W 084°37'612.8
2018-Jul-19 11:30N 45°46' W 084°43'0 0.0
2018-Jul-19 11:00N 45°46' W 084°43'0 0.0
2018-Jul-19 02:53N 45°46' W 084°43'0 0.0
2018-Jul-19 01:52N 45°46' W 084°43'0 0.0
2018-Jul-19 01:30N 45°46' W 084°43'612.9
2018-Jul-19 01:00N 45°51' W 084°37'5 7.0
2018-Jul-19 00:17N 45°47' W 084°42'517.9
2018-Jul-19 00:00N 45°51' W 084°37'613.2
2018-Jul-18 23:30N 45°46' W 084°43'612.8
2018-Jul-18 23:00N 45°51' W 084°37'612.9
2018-Jul-18 22:30N 45°46' W 084°43'612.7
2018-Jul-18 22:00N 45°51' W 084°37'612.9
2018-Jul-18 21:30N 45°46' W 084°43'613.0
2018-Jul-18 21:00N 45°51' W 084°37'612.8
2018-Jul-18 20:30N 45°46' W 084°43'612.8
2018-Jul-18 20:00N 45°51' W 084°37'612.8
2018-Jul-18 19:30N 45°46' W 084°43'612.6
2018-Jul-18 19:00N 45°51' W 084°37'613.0
2018-Jul-18 18:30N 45°46' W 084°43'612.8
2018-Jul-18 18:00N 45°51' W 084°37'612.8
2018-Jul-18 17:30N 45°46' W 084°43'5 0.2
2018-Jul-17 19:29N 45°50' W 084°38'3 6.3
2018-Jul-17 19:00N 45°48' W 084°41'4 8.4
2018-Jul-17 18:29N 45°51' W 084°37'612.9
2018-Jul-17 17:59N 45°46' W 084°43'613.3
2018-Jul-17 17:30N 45°51' W 084°37'3 5.6
2018-Jul-17 17:00N 45°49' W 084°39'2 3.7
2018-Jul-17 16:31N 45°48' W 084°41'5 8.3
2018-Jul-17 15:57N 45°51' W 084°37'410.0
2018-Jul-17 15:30N 45°48' W 084°41'1 1.6
2018-Jul-17 15:01N 45°48' W 084°40'4 2.4
2018-Jul-17 13:30N 45°51' W 084°37'610.9
2018-Jul-17 12:54N 45°46' W 084°43'0 0.0
2018-Jul-17 12:24N 45°46' W 084°43'612.7
2018-Jul-17 11:53N 45°51' W 084°37'616.3
2018-Jul-17 11:30N 45°46' W 084°43'1 0.1
2018-Jul-17 01:18N 45°47' W 084°43'1 0.7
2018-Jul-17 00:16N 45°47' W 084°42'1 0.5
2018-Jul-16 21:37N 45°46' W 084°43'622.1
2018-Jul-16 21:20N 45°51' W 084°37'0 0.0
2018-Jul-16 19:34N 45°51' W 084°37'6 4.1
2018-Jul-16 18:07N 45°47' W 084°43'1 4.9
2018-Jul-16 18:00N 45°46' W 084°43'6 6.8
2018-Jul-16 17:03N 45°51' W 084°37'615.4
2018-Jul-16 16:38N 45°46' W 084°43'213.7
2018-Jul-16 16:30N 45°48' W 084°41'5 6.8
2018-Jul-16 15:50N 45°51' W 084°37'615.7
2018-Jul-16 15:26N 45°46' W 084°43'4 4.0
2018-Jul-16 14:31N 45°49' W 084°41'024.2
2018-Jul-16 14:30N 45°49' W 084°41'1 2.7
2018-Jul-16 13:58N 45°48' W 084°41'4 7.3
2018-Jul-16 13:23N 45°51' W 084°37'614.7
2018-Jul-16 12:56N 45°46' W 084°43'0 0.0
2018-Jul-16 12:29N 45°46' W 084°43'0 0.0
2018-Jul-15 20:38N 45°46' W 084°43'1 3.4
2018-Jul-15 20:19N 45°47' W 084°42'5 7.4
2018-Jul-15 19:35N 45°51' W 084°37'622.9
2018-Jul-15 19:20N 45°47' W 084°42'3 8.2
2018-Jul-15 18:57N 45°49' W 084°39'2 4.0
2018-Jul-15 18:21N 45°51' W 084°37'618.2
2018-Jul-15 18:00N 45°46' W 084°43'6 7.4
2018-Jul-15 17:08N 45°51' W 084°37'616.3
2018-Jul-15 16:44N 45°46' W 084°43'2 6.5
2018-Jul-15 16:30N 45°47' W 084°42'5 8.8
2018-Jul-15 15:57N 45°51' W 084°37'614.6
2018-Jul-15 15:30N 45°46' W 084°43'6 8.0
2018-Jul-15 14:42N 45°51' W 084°37'616.3
2018-Jul-15 14:18N 45°46' W 084°43'310.5
2018-Jul-15 14:00N 45°49' W 084°40'3 5.7
2018-Jul-15 13:26N 45°51' W 084°37'6 6.5
2018-Jul-15 12:27N 45°46' W 084°43'612.9
2018-Jul-15 11:57N 45°51' W 084°37'612.9
2018-Jul-15 11:27N 45°46' W 084°43'6 0.6
2018-Jul-15 00:47N 45°51' W 084°37'6 2.0
2018-Jul-14 21:37N 45°46' W 084°43'421.5
2018-Jul-14 21:27N 45°49' W 084°39'2 3.4
2018-Jul-14 20:58N 45°50' W 084°38'5 9.2
2018-Jul-14 20:23N 45°46' W 084°43'616.9
2018-Jul-14 20:00N 45°51' W 084°37'5 7.8
2018-Jul-14 19:18N 45°47' W 084°42'1 4.6
2018-Jul-14 18:59N 45°48' W 084°41'4 6.3
2018-Jul-14 18:21N 45°51' W 084°37'618.0
2018-Jul-14 17:59N 45°46' W 084°43'6 6.9
2018-Jul-14 17:03N 45°51' W 084°37'111.1
2018-Jul-14 17:00N 45°50' W 084°37'5 9.9
2018-Jul-14 16:30N 45°47' W 084°42'5 9.0
2018-Jul-14 15:54N 45°51' W 084°37'614.7
2018-Jul-14 15:28N 45°46' W 084°43'5 6.0
2018-Jul-14 14:41N 45°50' W 084°39'419.6
2018-Jul-14 14:30N 45°48' W 084°44'5 4.6
2018-Jul-14 13:24N 45°50' W 084°37'615.0
2018-Jul-14 13:00N 45°46' W 084°43'0 0.0
2018-Jul-14 12:29N 45°46' W 084°43'611.6
2018-Jul-14 11:56N 45°51' W 084°37'610.3
2018-Jul-14 11:18N 45°46' W 084°43'1 0.1
2018-Jul-14 01:19N 45°47' W 084°42'512.5
2018-Jul-14 00:53N 45°51' W 084°37'613.9
2018-Jul-14 00:25N 45°46' W 084°43'611.3
2018-Jul-13 23:51N 45°51' W 084°37'6 6.1
2018-Jul-13 22:52N 45°47' W 084°43'611.9
2018-Jul-13 22:21N 45°51' W 084°37'612.5
2018-Jul-13 21:50N 45°46' W 084°43'612.8
2018-Jul-13 21:20N 45°51' W 084°37'617.4
2018-Jul-13 20:58N 45°46' W 084°43'6 9.9
2018-Jul-13 20:19N 45°51' W 084°37'613.7
2018-Jul-13 19:51N 45°46' W 084°43'612.3
2018-Jul-13 19:19N 45°51' W 084°37'618.3
2018-Jul-13 18:58N 45°46' W 084°43'610.4
2018-Jul-13 18:21N 45°51' W 084°37'615.0
2018-Jul-13 17:55N 45°46' W 084°43'6 7.5
2018-Jul-13 17:04N 45°51' W 084°37'614.8
2018-Jul-13 16:38N 45°46' W 084°43'6 8.0
2018-Jul-13 15:49N 45°51' W 084°37'614.7
2018-Jul-13 15:23N 45°46' W 084°43'5 6.0
2018-Jul-13 14:32N 45°50' W 084°38'3 6.0
2018-Jul-13 13:59N 45°48' W 084°42'5 8.2
2018-Jul-13 13:26N 45°51' W 084°37'6 8.1
2018-Jul-13 12:38N 45°46' W 084°43'2 4.7
2018-Jul-13 12:16N 45°48' W 084°42'511.5
2018-Jul-13 11:51N 45°51' W 084°37'614.9
2018-Jul-13 11:26N 45°46' W 084°43'0 0.0
2018-Jul-12 22:54N 45°46' W 084°43'610.6
2018-Jul-12 22:18N 45°51' W 084°37'6 9.7
2018-Jul-12 21:38N 45°46' W 084°43'322.5
2018-Jul-12 21:30N 45°48' W 084°41'1 1.1
2018-Jul-12 20:17N 45°48' W 084°42'5 7.0
2018-Jul-12 19:35N 45°51' W 084°37'110.3
2018-Jul-12 19:28N 45°50' W 084°38'2 4.3
2018-Jul-12 18:57N 45°49' W 084°40'3 5.5
2018-Jul-12 18:20N 45°51' W 084°37'4 7.2
2018-Jul-12 17:43N 45°48' W 084°41'4 7.1
2018-Jul-12 17:06N 45°51' W 084°37'523.8
2018-Jul-12 16:53N 45°47' W 084°42'1 2.4
2018-Jul-12 16:30N 45°48' W 084°41'4 7.9
2018-Jul-12 15:57N 45°51' W 084°37'613.2
2018-Jul-12 15:27N 45°46' W 084°43'0 0.0
2018-Jul-12 14:53N 45°46' W 084°43'613.4
2018-Jul-12 14:24N 45°51' W 084°37'612.9
2018-Jul-12 13:54N 45°46' W 084°43'614.4
2018-Jul-12 13:28N 45°51' W 084°37'6 7.6
2018-Jul-12 12:37N 45°46' W 084°43'0 3.1
2018-Jul-12 12:31N 45°46' W 084°43'6 9.9
2018-Jul-12 11:53N 45°51' W 084°37'0 0.0
2018-Jul-11 22:19N 45°51' W 084°37'6 9.6
2018-Jul-11 21:38N 45°46' W 084°43'320.5
2018-Jul-11 21:31N 45°48' W 084°41'1 1.4
2018-Jul-11 20:52N 45°47' W 084°41'2 3.4
2018-Jul-11 20:21N 45°46' W 084°43'6 9.4
2018-Jul-11 19:40N 45°51' W 084°37'520.2
2018-Jul-11 19:25N 45°47' W 084°42'0 1.0
2018-Jul-11 19:00N 45°48' W 084°42'5 6.4
2018-Jul-11 18:18N 45°51' W 084°37'613.6
2018-Jul-11 17:49N 45°46' W 084°43'6 9.1
2018-Jul-11 17:07N 45°51' W 084°37'617.0
2018-Jul-11 16:44N 45°46' W 084°43'2 8.5
2018-Jul-11 16:30N 45°48' W 084°41'4 7.1
2018-Jul-11 15:53N 45°51' W 084°37'614.5
2018-Jul-11 15:26N 45°46' W 084°43'6 9.1
2018-Jul-11 14:44N 45°51' W 084°37'418.2
2018-Jul-11 14:30N 45°49' W 084°42'1 2.8
2018-Jul-11 14:00N 45°48' W 084°42'4 9.0
2018-Jul-11 13:30N 45°51' W 084°37'612.7
2018-Jul-11 13:00N 45°46' W 084°43'  
Track history (hours):
 
Tides and Currents Weather Stations Pressure Air Temp Water Temp Dewpoint Dewpoint Depression Visibility Wind Speed Wind Dir Waves Ship Positions

Mackinac Express

Owner: STAR LINE - MACKINAC ISLAND PASS SERVICE, Saint Ignac, MI. More information available from US FCC via Universal Licensing System and Coast Guard Vessel Documentation Center.

Last reported at 2018-Jul-21 04:23 UTC. Time now 2018-Jul-21 08:00 UTC.
Position N 45°46' W 084°43'.

MMSI: 367745540.

Date/timePositionNaut miles runAvg speedWind from/ knotsBaromVisibWave heightAir tempDewpointWater temp
2018-Jul-21 04:23N 45°46' W 084°43'616.7
2018-Jul-21 04:00N 45°51' W 084°37'612.8
2018-Jul-21 03:30N 45°46' W 084°43'0 0.0
2018-Jul-21 03:00N 45°46' W 084°43'612.3
2018-Jul-21 02:29N 45°51' W 084°37'613.6
2018-Jul-21 02:01N 45°46' W 084°43'0 0.0
2018-Jul-21 01:31N 45°46' W 084°43'612.1
2018-Jul-21 00:59N 45°51' W 084°37'613.7
2018-Jul-21 00:31N 45°46' W 084°43'612.4
2018-Jul-20 23:59N 45°51' W 084°37'612.8
2018-Jul-20 23:29N 45°46' W 084°43'0 0.0
2018-Jul-20 23:00N 45°46' W 084°43'611.4
2018-Jul-20 22:27N 45°51' W 084°37'614.7
2018-Jul-20 22:00N 45°46' W 084°43'2 4.4
2018-Jul-20 21:30N 45°48' W 084°41'4 8.3
2018-Jul-20 21:00N 45°50' W 084°37'612.5
2018-Jul-20 20:30N 45°46' W 084°43'612.5
2018-Jul-20 19:59N 45°51' W 084°37'1 1.8
2018-Jul-20 19:30N 45°50' W 084°37'3 6.8
2018-Jul-20 19:00N 45°48' W 084°41'4 8.7
2018-Jul-20 18:30N 45°51' W 084°37'612.9
2018-Jul-20 18:00N 45°46' W 084°43'612.7
2018-Jul-20 17:30N 45°51' W 084°37'1 2.1
2018-Jul-20 17:00N 45°50' W 084°38'3 6.8
2018-Jul-20 16:30N 45°48' W 084°41'5 9.1
2018-Jul-20 16:00N 45°51' W 084°37'612.7
2018-Jul-20 15:30N 45°46' W 084°43'612.9
2018-Jul-20 15:00N 45°51' W 084°37'5 9.3
2018-Jul-20 14:30N 45°49' W 084°43'2 4.0
2018-Jul-20 14:00N 45°47' W 084°42'510.3
2018-Jul-20 13:30N 45°51' W 084°37'611.3
2018-Jul-20 12:57N 45°46' W 084°43'0 0.0
2018-Jul-20 12:30N 45°46' W 084°43'612.4
2018-Jul-20 11:59N 45°51' W 084°37'613.4
2018-Jul-20 11:30N 45°46' W 084°43'0 0.0
2018-Jul-20 11:00N 45°46' W 084°43'0 0.0
2018-Jul-19 22:56N 45°46' W 084°43'614.8
2018-Jul-19 22:30N 45°51' W 084°37'612.5
2018-Jul-19 22:00N 45°46' W 084°43'3 6.5
2018-Jul-19 21:30N 45°49' W 084°40'2 4.5
2018-Jul-19 21:00N 45°50' W 084°38'510.8
2018-Jul-19 20:30N 45°46' W 084°43'612.7
2018-Jul-19 20:00N 45°51' W 084°37'1 2.3
2018-Jul-19 19:31N 45°50' W 084°38'4 7.6
2018-Jul-19 19:00N 45°47' W 084°42'5 9.6
2018-Jul-19 18:30N 45°51' W 084°37'612.2
2018-Jul-19 17:58N 45°46' W 084°43'613.5
2018-Jul-19 17:30N 45°51' W 084°37'2 3.6
2018-Jul-19 17:00N 45°50' W 084°39'4 7.1
2018-Jul-19 16:30N 45°47' W 084°42'510.1
2018-Jul-19 15:59N 45°51' W 084°37'613.6
2018-Jul-19 15:30N 45°46' W 084°43'1 0.8
2018-Jul-19 14:00N 45°47' W 084°42'510.5
2018-Jul-19 13:30N 45°51' W 084°37'612.4
2018-Jul-19 12:59N 45°46' W 084°43'0 0.0
2018-Jul-19 12:30N 45°46' W 084°43'612.8
2018-Jul-19 12:00N 45°51' W 084°37'612.8
2018-Jul-19 11:30N 45°46' W 084°43'0 0.0
2018-Jul-19 11:00N 45°46' W 084°43'0 0.0
2018-Jul-19 02:53N 45°46' W 084°43'0 0.0
2018-Jul-19 01:52N 45°46' W 084°43'0 0.0
2018-Jul-19 01:30N 45°46' W 084°43'612.9
2018-Jul-19 01:00N 45°51' W 084°37'5 7.0
2018-Jul-19 00:17N 45°47' W 084°42'517.9
2018-Jul-19 00:00N 45°51' W 084°37'613.2
2018-Jul-18 23:30N 45°46' W 084°43'612.8
2018-Jul-18 23:00N 45°51' W 084°37'612.9
2018-Jul-18 22:30N 45°46' W 084°43'612.7
2018-Jul-18 22:00N 45°51' W 084°37'612.9
2018-Jul-18 21:30N 45°46' W 084°43'613.0
2018-Jul-18 21:00N 45°51' W 084°37'612.8
2018-Jul-18 20:30N 45°46' W 084°43'612.8
2018-Jul-18 20:00N 45°51' W 084°37'612.8
2018-Jul-18 19:30N 45°46' W 084°43'612.6
2018-Jul-18 19:00N 45°51' W 084°37'613.0
2018-Jul-18 18:30N 45°46' W 084°43'612.8
2018-Jul-18 18:00N 45°51' W 084°37'612.8
2018-Jul-18 17:30N 45°46' W 084°43'5 0.2
2018-Jul-17 19:29N 45°50' W 084°38'3 6.3
2018-Jul-17 19:00N 45°48' W 084°41'4 8.4
2018-Jul-17 18:29N 45°51' W 084°37'612.9
2018-Jul-17 17:59N 45°46' W 084°43'613.3
2018-Jul-17 17:30N 45°51' W 084°37'3 5.6
2018-Jul-17 17:00N 45°49' W 084°39'2 3.7
2018-Jul-17 16:31N 45°48' W 084°41'5 8.3
2018-Jul-17 15:57N 45°51' W 084°37'410.0
2018-Jul-17 15:30N 45°48' W 084°41'1 1.6
2018-Jul-17 15:01N 45°48' W 084°40'4 2.4
2018-Jul-17 13:30N 45°51' W 084°37'610.9
2018-Jul-17 12:54N 45°46' W 084°43'0 0.0
2018-Jul-17 12:24N 45°46' W 084°43'612.7
2018-Jul-17 11:53N 45°51' W 084°37'616.3
2018-Jul-17 11:30N 45°46' W 084°43'1 0.1
2018-Jul-17 01:18N 45°47' W 084°43'1 0.7
2018-Jul-17 00:16N 45°47' W 084°42'1 0.5
2018-Jul-16 21:37N 45°46' W 084°43'622.1
2018-Jul-16 21:20N 45°51' W 084°37'0 0.0
2018-Jul-16 19:34N 45°51' W 084°37'6 4.1
2018-Jul-16 18:07N 45°47' W 084°43'1 4.9
2018-Jul-16 18:00N 45°46' W 084°43'6 6.8
2018-Jul-16 17:03N 45°51' W 084°37'615.4
2018-Jul-16 16:38N 45°46' W 084°43'213.7
2018-Jul-16 16:30N 45°48' W 084°41'5 6.8
2018-Jul-16 15:50N 45°51' W 084°37'615.7
2018-Jul-16 15:26N 45°46' W 084°43'4 4.0
2018-Jul-16 14:31N 45°49' W 084°41'024.2
2018-Jul-16 14:30N 45°49' W 084°41'1 2.7
2018-Jul-16 13:58N 45°48' W 084°41'4 7.3
2018-Jul-16 13:23N 45°51' W 084°37'614.7
2018-Jul-16 12:56N 45°46' W 084°43'0 0.0
2018-Jul-16 12:29N 45°46' W 084°43'0 0.0
2018-Jul-15 20:38N 45°46' W 084°43'1 3.4
2018-Jul-15 20:19N 45°47' W 084°42'5 7.4
2018-Jul-15 19:35N 45°51' W 084°37'622.9
2018-Jul-15 19:20N 45°47' W 084°42'3 8.2
2018-Jul-15 18:57N 45°49' W 084°39'2 4.0
2018-Jul-15 18:21N 45°51' W 084°37'618.2
2018-Jul-15 18:00N 45°46' W 084°43'6 7.4
2018-Jul-15 17:08N 45°51' W 084°37'616.3
2018-Jul-15 16:44N 45°46' W 084°43'2 6.5
2018-Jul-15 16:30N 45°47' W 084°42'5 8.8
2018-Jul-15 15:57N 45°51' W 084°37'614.6
2018-Jul-15 15:30N 45°46' W 084°43'6 8.0
2018-Jul-15 14:42N 45°51' W 084°37'616.3
2018-Jul-15 14:18N 45°46' W 084°43'310.5
2018-Jul-15 14:00N 45°49' W 084°40'3 5.7
2018-Jul-15 13:26N 45°51' W 084°37'6 6.5
2018-Jul-15 12:27N 45°46' W 084°43'612.9
2018-Jul-15 11:57N 45°51' W 084°37'612.9
2018-Jul-15 11:27N 45°46' W 084°43'6 0.6
2018-Jul-15 00:47N 45°51' W 084°37'6 2.0
2018-Jul-14 21:37N 45°46' W 084°43'421.5
2018-Jul-14 21:27N 45°49' W 084°39'2 3.4
2018-Jul-14 20:58N 45°50' W 084°38'5 9.2
2018-Jul-14 20:23N 45°46' W 084°43'616.9
2018-Jul-14 20:00N 45°51' W 084°37'5 7.8
2018-Jul-14 19:18N 45°47' W 084°42'1 4.6
2018-Jul-14 18:59N 45°48' W 084°41'4 6.3
2018-Jul-14 18:21N 45°51' W 084°37'618.0
2018-Jul-14 17:59N 45°46' W 084°43'6 6.9
2018-Jul-14 17:03N 45°51' W 084°37'111.1
2018-Jul-14 17:00N 45°50' W 084°37'5 9.9
2018-Jul-14 16:30N 45°47' W 084°42'5 9.0
2018-Jul-14 15:54N 45°51' W 084°37'614.7
2018-Jul-14 15:28N 45°46' W 084°43'5 6.0
2018-Jul-14 14:41N 45°50' W 084°39'419.6
2018-Jul-14 14:30N 45°48' W 084°44'5 4.6
2018-Jul-14 13:24N 45°50' W 084°37'615.0
2018-Jul-14 13:00N 45°46' W 084°43'0 0.0
2018-Jul-14 12:29N 45°46' W 084°43'611.6
2018-Jul-14 11:56N 45°51' W 084°37'610.3
2018-Jul-14 11:18N 45°46' W 084°43'1 0.1
2018-Jul-14 01:19N 45°47' W 084°42'512.5
2018-Jul-14 00:53N 45°51' W 084°37'613.9
2018-Jul-14 00:25N 45°46' W 084°43'611.3
2018-Jul-13 23:51N 45°51' W 084°37'6 6.1
2018-Jul-13 22:52N 45°47' W 084°43'611.9
2018-Jul-13 22:21N 45°51' W 084°37'612.5
2018-Jul-13 21:50N 45°46' W 084°43'612.8
2018-Jul-13 21:20N 45°51' W 084°37'617.4
2018-Jul-13 20:58N 45°46' W 084°43'6 9.9
2018-Jul-13 20:19N 45°51' W 084°37'613.7
2018-Jul-13 19:51N 45°46' W 084°43'612.3
2018-Jul-13 19:19N 45°51' W 084°37'618.3
2018-Jul-13 18:58N 45°46' W 084°43'610.4
2018-Jul-13 18:21N 45°51' W 084°37'615.0
2018-Jul-13 17:55N 45°46' W 084°43'6 7.5
2018-Jul-13 17:04N 45°51' W 084°37'614.8
2018-Jul-13 16:38N 45°46' W 084°43'6 8.0
2018-Jul-13 15:49N 45°51' W 084°37'614.7
2018-Jul-13 15:23N 45°46' W 084°43'5 6.0
2018-Jul-13 14:32N 45°50' W 084°38'3 6.0
2018-Jul-13 13:59N 45°48' W 084°42'5 8.2
2018-Jul-13 13:26N 45°51' W 084°37'6 8.1
2018-Jul-13 12:38N 45°46' W 084°43'2 4.7
2018-Jul-13 12:16N 45°48' W 084°42'511.5
2018-Jul-13 11:51N 45°51' W 084°37'614.9
2018-Jul-13 11:26N 45°46' W 084°43'0 0.0
2018-Jul-12 22:54N 45°46' W 084°43'610.6
2018-Jul-12 22:18N 45°51' W 084°37'6 9.7
2018-Jul-12 21:38N 45°46' W 084°43'322.5
2018-Jul-12 21:30N 45°48' W 084°41'1 1.1
2018-Jul-12 20:17N 45°48' W 084°42'5 7.0
2018-Jul-12 19:35N 45°51' W 084°37'110.3
2018-Jul-12 19:28N 45°50' W 084°38'2 4.3
2018-Jul-12 18:57N 45°49' W 084°40'3 5.5
2018-Jul-12 18:20N 45°51' W 084°37'4 7.2
2018-Jul-12 17:43N 45°48' W 084°41'4 7.1
2018-Jul-12 17:06N 45°51' W 084°37'523.8
2018-Jul-12 16:53N 45°47' W 084°42'1 2.4
2018-Jul-12 16:30N 45°48' W 084°41'4 7.9
2018-Jul-12 15:57N 45°51' W 084°37'613.2
2018-Jul-12 15:27N 45°46' W 084°43'0 0.0
2018-Jul-12 14:53N 45°46' W 084°43'613.4
2018-Jul-12 14:24N 45°51' W 084°37'612.9
2018-Jul-12 13:54N 45°46' W 084°43'614.4
2018-Jul-12 13:28N 45°51' W 084°37'6 7.6
2018-Jul-12 12:37N 45°46' W 084°43'0 3.1
2018-Jul-12 12:31N 45°46' W 084°43'6 9.9
2018-Jul-12 11:53N 45°51' W 084°37'0 0.0
2018-Jul-11 22:19N 45°51' W 084°37'6 9.6
2018-Jul-11 21:38N 45°46' W 084°43'320.5
2018-Jul-11 21:31N 45°48' W 084°41'1 1.4
2018-Jul-11 20:52N 45°47' W 084°41'2 3.4
2018-Jul-11 20:21N 45°46' W 084°43'6 9.4
2018-Jul-11 19:40N 45°51' W 084°37'520.2
2018-Jul-11 19:25N 45°47' W 084°42'0 1.0
2018-Jul-11 19:00N 45°48' W 084°42'5 6.4
2018-Jul-11 18:18N 45°51' W 084°37'613.6
2018-Jul-11 17:49N 45°46' W 084°43'6 9.1
2018-Jul-11 17:07N 45°51' W 084°37'617.0
2018-Jul-11 16:44N 45°46' W 084°43'2 8.5
2018-Jul-11 16:30N 45°48' W 084°41'4 7.1
2018-Jul-11 15:53N 45°51' W 084°37'614.5
2018-Jul-11 15:26N 45°46' W 084°43'6 9.1
2018-Jul-11 14:44N 45°51' W 084°37'418.2
2018-Jul-11 14:30N 45°49' W 084°42'1 2.8
2018-Jul-11 14:00N 45°48' W 084°42'4 9.0
2018-Jul-11 13:30N 45°51' W 084°37'612.7
2018-Jul-11 13:00N 45°46' W 084°43'  

Dump ship's entire track history